Federal Cardinal — 3FWE3 — position and weather

sailwx.info

Track history (hours):
 
Tides and Currents Weather Stations Pressure Air Temp Water Temp Dewpoint Dewpoint Depression Visibility Wind Speed Wind Dir Waves Ship Positions

Federal Cardinal

Last reported at 2018-Jan-24 02:27 UTC. Time now 2018-Jan-24 12:06 UTC.
Position N 27°40' W 016°42'.

Length 185 m; draft 6.7 m.

Type: Cargo ship. MMSI: 371646000.

Date/timePositionNaut miles runAvg speedWind from/ knotsBaromVisibWave heightAir tempDewpointWater temp
2018-Jan-24 02:27N 27°40' W 016°42'2412.6
2018-Jan-24 00:31N 27°58' W 016°24'312.9
2018-Jan-24 00:18N 27°60' W 016°22'512.9
2018-Jan-23 23:53N 28°04' W 016°18'513.0
2018-Jan-23 23:31N 28°08' W 016°14'612.8
2018-Jan-23 23:00N 28°13' W 016°10'612.7
2018-Jan-23 22:30N 28°18' W 016°05'612.3
2018-Jan-23 22:01N 28°22' W 016°00'612.4
2018-Jan-23 21:30N 28°27' W 015°56'612.2
2018-Jan-23 21:01N 28°32' W 015°51'611.8
2018-Jan-23 20:30N 28°36' W 015°47'611.9
2018-Jan-23 20:00N 28°41' W 015°43'612.2
2018-Jan-23 19:29N 28°46' W 015°38'612.2
2018-Jan-23 19:00N 28°50' W 015°34'612.2
2018-Jan-23 18:29N 28°55' W 015°29'612.2
2018-Jan-23 18:00N 28°60' W 015°25'612.2
2018-Jan-23 17:30N 29°04' W 015°20'612.3
2018-Jan-23 17:00N 29°09' W 015°16'612.1
2018-Jan-23 16:30N 29°14' W 015°11'612.5
2018-Jan-23 15:59N 29°19' W 015°07'613.0
2018-Jan-23 15:30N 29°24' W 015°02'612.5
2018-Jan-23 14:59N 29°28' W 014°57'612.2
2018-Jan-23 14:30N 29°33' W 014°54'612.2
2018-Jan-23 14:00N 29°38' W 014°50'612.2
2018-Jan-23 13:30N 29°43' W 014°46'612.1
2018-Jan-23 12:58N 29°49' W 014°42'912.2
2018-Jan-23 12:13N 29°57' W 014°36'912.3
2018-Jan-23 11:29N 30°04' W 014°31'712.3
2018-Jan-23 10:57N 30°10' W 014°26'56511.6
2018-Jan-21 10:15N 35°58' W 005°35'2 8.0
2018-Jan-21 10:00N 35°58' W 005°32'4 7.3
2018-Jan-21 09:30N 35°60' W 005°28'3 6.6
2018-Jan-21 08:59N 36°01' W 005°24'6 5.3
2018-Jan-21 07:46N 36°07' W 005°22'0 0.1
2018-Jan-21 06:46N 36°07' W 005°22'0 0.1
2018-Jan-21 06:25N 36°07' W 005°22'0 0.0
2018-Jan-21 05:40N 36°07' W 005°22'0 0.0
2018-Jan-21 04:31N 36°07' W 005°22'0 0.1
2018-Jan-21 04:22N 36°07' W 005°22'0 0.0
2018-Jan-21 03:49N 36°07' W 005°22'0 0.1
2018-Jan-21 03:13N 36°07' W 005°22'0 0.1
2018-Jan-21 02:55N 36°07' W 005°22'0 0.3
2018-Jan-21 02:19N 36°07' W 005°22'0 0.0
2018-Jan-21 01:58N 36°07' W 005°22'0 0.1
2018-Jan-21 01:28N 36°07' W 005°22'0 0.0
2018-Jan-21 00:19N 36°07' W 005°22'0 0.1
2018-Jan-20 23:58N 36°07' W 005°22'0 0.2
2018-Jan-20 23:10N 36°07' W 005°22'0 0.1
2018-Jan-20 22:49N 36°07' W 005°22'0 0.0
2018-Jan-20 19:04N 36°07' W 005°22'0 0.0
2018-Jan-20 18:46N 36°07' W 005°22'0 0.1
2018-Jan-20 18:28N 36°07' W 005°22'0 0.1
2018-Jan-20 17:28N 36°07' W 005°21'0 0.0
2018-Jan-20 14:50N 36°07' W 005°21'0 0.0
2018-Jan-20 14:28N 36°07' W 005°21'0 0.0
2018-Jan-20 14:00N 36°07' W 005°21'0 0.1
2018-Jan-20 13:30N 36°07' W 005°22'2 3.8
2018-Jan-20 12:58N 36°05' W 005°21'2 3.8
2018-Jan-20 12:30N 36°05' W 005°19'1 2.5
2018-Jan-20 11:59N 36°05' W 005°18'1 1.4
2018-Jan-20 11:30N 36°06' W 005°17'1 1.5
2018-Jan-20 10:59N 36°06' W 005°16'3 7.0
2018-Jan-20 10:29N 36°07' W 005°12'7 0.9
2018-Jan-20 02:51N 36°08' W 005°04'1 3.7
2018-Jan-20 02:28N 36°09' W 005°03'3 7.2
2018-Jan-20 02:00N 36°13' W 005°03'2 4.7
2018-Jan-20 01:30N 36°14' W 005°06'0 0.6
2018-Jan-20 00:44N 36°13' W 005°06'0 1.0
2018-Jan-20 00:29N 36°13' W 005°06'1 1.1
2018-Jan-19 23:59N 36°13' W 005°06'1 1.0
2018-Jan-19 23:29N 36°12' W 005°06'0 0.7
2018-Jan-19 22:59N 36°12' W 005°06'0 0.2
2018-Jan-19 22:29N 36°12' W 005°06'2 3.5
2018-Jan-19 22:00N 36°11' W 005°05'5 9.4
2018-Jan-19 21:30N 36°08' W 005°00'4 6.7
2018-Jan-19 20:58N 36°07' W 004°56'0 0.6
2018-Jan-19 20:30N 36°07' W 004°55'4 8.1
2018-Jan-19 20:01N 36°08' W 004°51'510.1
2018-Jan-19 19:28N 36°09' W 004°44'5 9.7
2018-Jan-19 19:00N 36°09' W 004°38'5 9.5
2018-Jan-19 18:30N 36°10' W 004°33'5 9.3
2018-Jan-19 18:00N 36°10' W 004°27'  
Track history (hours):
 
Tides and Currents Weather Stations Pressure Air Temp Water Temp Dewpoint Dewpoint Depression Visibility Wind Speed Wind Dir Waves Ship Positions

Federal Cardinal

Last reported at 2018-Jan-24 02:27 UTC. Time now 2018-Jan-24 12:06 UTC.
Position N 27°40' W 016°42'.

Length 185 m; draft 6.7 m.

Type: Cargo ship. MMSI: 371646000.

Date/timePositionNaut miles runAvg speedWind from/ knotsBaromVisibWave heightAir tempDewpointWater temp
2018-Jan-24 02:27N 27°40' W 016°42'2412.6
2018-Jan-24 00:31N 27°58' W 016°24'312.9
2018-Jan-24 00:18N 27°60' W 016°22'512.9
2018-Jan-23 23:53N 28°04' W 016°18'513.0
2018-Jan-23 23:31N 28°08' W 016°14'612.8
2018-Jan-23 23:00N 28°13' W 016°10'612.7
2018-Jan-23 22:30N 28°18' W 016°05'612.3
2018-Jan-23 22:01N 28°22' W 016°00'612.4
2018-Jan-23 21:30N 28°27' W 015°56'612.2
2018-Jan-23 21:01N 28°32' W 015°51'611.8
2018-Jan-23 20:30N 28°36' W 015°47'611.9
2018-Jan-23 20:00N 28°41' W 015°43'612.2
2018-Jan-23 19:29N 28°46' W 015°38'612.2
2018-Jan-23 19:00N 28°50' W 015°34'612.2
2018-Jan-23 18:29N 28°55' W 015°29'612.2
2018-Jan-23 18:00N 28°60' W 015°25'612.2
2018-Jan-23 17:30N 29°04' W 015°20'612.3
2018-Jan-23 17:00N 29°09' W 015°16'612.1
2018-Jan-23 16:30N 29°14' W 015°11'612.5
2018-Jan-23 15:59N 29°19' W 015°07'613.0
2018-Jan-23 15:30N 29°24' W 015°02'612.5
2018-Jan-23 14:59N 29°28' W 014°57'612.2
2018-Jan-23 14:30N 29°33' W 014°54'612.2
2018-Jan-23 14:00N 29°38' W 014°50'612.2
2018-Jan-23 13:30N 29°43' W 014°46'612.1
2018-Jan-23 12:58N 29°49' W 014°42'912.2
2018-Jan-23 12:13N 29°57' W 014°36'912.3
2018-Jan-23 11:29N 30°04' W 014°31'712.3
2018-Jan-23 10:57N 30°10' W 014°26'56511.6
2018-Jan-21 10:15N 35°58' W 005°35'2 8.0
2018-Jan-21 10:00N 35°58' W 005°32'4 7.3
2018-Jan-21 09:30N 35°60' W 005°28'3 6.6
2018-Jan-21 08:59N 36°01' W 005°24'6 5.3
2018-Jan-21 07:46N 36°07' W 005°22'0 0.1
2018-Jan-21 06:46N 36°07' W 005°22'0 0.1
2018-Jan-21 06:25N 36°07' W 005°22'0 0.0
2018-Jan-21 05:40N 36°07' W 005°22'0 0.0
2018-Jan-21 04:31N 36°07' W 005°22'0 0.1
2018-Jan-21 04:22N 36°07' W 005°22'0 0.0
2018-Jan-21 03:49N 36°07' W 005°22'0 0.1
2018-Jan-21 03:13N 36°07' W 005°22'0 0.1
2018-Jan-21 02:55N 36°07' W 005°22'0 0.3
2018-Jan-21 02:19N 36°07' W 005°22'0 0.0
2018-Jan-21 01:58N 36°07' W 005°22'0 0.1
2018-Jan-21 01:28N 36°07' W 005°22'0 0.0
2018-Jan-21 00:19N 36°07' W 005°22'0 0.1
2018-Jan-20 23:58N 36°07' W 005°22'0 0.2
2018-Jan-20 23:10N 36°07' W 005°22'0 0.1
2018-Jan-20 22:49N 36°07' W 005°22'0 0.0
2018-Jan-20 19:04N 36°07' W 005°22'0 0.0
2018-Jan-20 18:46N 36°07' W 005°22'0 0.1
2018-Jan-20 18:28N 36°07' W 005°22'0 0.1
2018-Jan-20 17:28N 36°07' W 005°21'0 0.0
2018-Jan-20 14:50N 36°07' W 005°21'0 0.0
2018-Jan-20 14:28N 36°07' W 005°21'0 0.0
2018-Jan-20 14:00N 36°07' W 005°21'0 0.1
2018-Jan-20 13:30N 36°07' W 005°22'2 3.8
2018-Jan-20 12:58N 36°05' W 005°21'2 3.8
2018-Jan-20 12:30N 36°05' W 005°19'1 2.5
2018-Jan-20 11:59N 36°05' W 005°18'1 1.4
2018-Jan-20 11:30N 36°06' W 005°17'1 1.5
2018-Jan-20 10:59N 36°06' W 005°16'3 7.0
2018-Jan-20 10:29N 36°07' W 005°12'7 0.9
2018-Jan-20 02:51N 36°08' W 005°04'1 3.7
2018-Jan-20 02:28N 36°09' W 005°03'3 7.2
2018-Jan-20 02:00N 36°13' W 005°03'2 4.7
2018-Jan-20 01:30N 36°14' W 005°06'0 0.6
2018-Jan-20 00:44N 36°13' W 005°06'0 1.0
2018-Jan-20 00:29N 36°13' W 005°06'1 1.1
2018-Jan-19 23:59N 36°13' W 005°06'1 1.0
2018-Jan-19 23:29N 36°12' W 005°06'0 0.7
2018-Jan-19 22:59N 36°12' W 005°06'0 0.2
2018-Jan-19 22:29N 36°12' W 005°06'2 3.5
2018-Jan-19 22:00N 36°11' W 005°05'5 9.4
2018-Jan-19 21:30N 36°08' W 005°00'4 6.7
2018-Jan-19 20:58N 36°07' W 004°56'0 0.6
2018-Jan-19 20:30N 36°07' W 004°55'4 8.1
2018-Jan-19 20:01N 36°08' W 004°51'510.1
2018-Jan-19 19:28N 36°09' W 004°44'5 9.7
2018-Jan-19 19:00N 36°09' W 004°38'5 9.5
2018-Jan-19 18:30N 36°10' W 004°33'5 9.3
2018-Jan-19 18:00N 36°10' W 004°27'  

Dump ship's entire track history